sensor_id;sensor_type;location;lat;lon;timestamp;P1;durP1;ratioP1;P2;durP2;ratioP2
11887;SDS011;6003;42.756;23.130;2022-10-22T00:02:20;9.13;;;6.87;;
11887;SDS011;6003;42.756;23.130;2022-10-22T00:04:47;16.60;;;7.70;;
11887;SDS011;6003;42.756;23.130;2022-10-22T00:07:16;10.73;;;7.30;;
11887;SDS011;6003;42.756;23.130;2022-10-22T00:09:43;10.67;;;7.20;;
11887;SDS011;6003;42.756;23.130;2022-10-22T00:12:12;11.17;;;7.27;;
11887;SDS011;6003;42.756;23.130;2022-10-22T00:14:40;10.17;;;7.43;;
11887;SDS011;6003;42.756;23.130;2022-10-22T00:17:08;11.80;;;7.57;;
11887;SDS011;6003;42.756;23.130;2022-10-22T00:19:36;8.63;;;6.97;;
11887;SDS011;6003;42.756;23.130;2022-10-22T00:22:04;10.47;;;6.83;;
11887;SDS011;6003;42.756;23.130;2022-10-22T00:24:31;13.37;;;7.27;;
11887;SDS011;6003;42.756;23.130;2022-10-22T00:26:59;14.33;;;7.57;;
11887;SDS011;6003;42.756;23.130;2022-10-22T00:29:26;11.27;;;7.33;;
11887;SDS011;6003;42.756;23.130;2022-10-22T00:31:53;8.83;;;6.43;;
11887;SDS011;6003;42.756;23.130;2022-10-22T00:34:21;10.90;;;7.07;;
11887;SDS011;6003;42.756;23.130;2022-10-22T00:36:49;9.17;;;6.77;;
11887;SDS011;6003;42.756;23.130;2022-10-22T00:39:18;11.03;;;7.37;;
11887;SDS011;6003;42.756;23.130;2022-10-22T00:41:48;11.00;;;6.40;;
11887;SDS011;6003;42.756;23.130;2022-10-22T00:47:17;10.47;;;6.97;;
11887;SDS011;6003;42.756;23.130;2022-10-22T00:49:45;9.43;;;7.27;;
11887;SDS011;6003;42.756;23.130;2022-10-22T00:52:14;16.63;;;7.43;;
11887;SDS011;6003;42.756;23.130;2022-10-22T00:54:41;9.13;;;6.80;;
11887;SDS011;6003;42.756;23.130;2022-10-22T00:57:08;12.63;;;8.00;;
11887;SDS011;6003;42.756;23.130;2022-10-22T00:59:36;9.07;;;6.20;;
11887;SDS011;6003;42.756;23.130;2022-10-22T01:02:03;14.40;;;7.57;;
11887;SDS011;6003;42.756;23.130;2022-10-22T01:04:30;9.17;;;6.87;;
11887;SDS011;6003;42.756;23.130;2022-10-22T01:06:57;9.90;;;6.67;;
11887;SDS011;6003;42.756;23.130;2022-10-22T01:09:27;10.50;;;6.63;;
11887;SDS011;6003;42.756;23.130;2022-10-22T01:12:01;10.50;;;6.60;;
11887;SDS011;6003;42.756;23.130;2022-10-22T01:14:36;10.13;;;6.03;;
11887;SDS011;6003;42.756;23.130;2022-10-22T01:17:13;9.93;;;6.20;;
11887;SDS011;6003;42.756;23.130;2022-10-22T01:19:49;8.90;;;6.23;;
11887;SDS011;6003;42.756;23.130;2022-10-22T01:22:31;12.67;;;5.83;;
11887;SDS011;6003;42.756;23.130;2022-10-22T01:25:07;6.80;;;5.30;;
11887;SDS011;6003;42.756;23.130;2022-10-22T01:27:44;7.00;;;5.47;;
11887;SDS011;6003;42.756;23.130;2022-10-22T01:30:39;15.37;;;6.33;;
11887;SDS011;6003;42.756;23.130;2022-10-22T01:33:09;15.13;;;6.57;;
11887;SDS011;6003;42.756;23.130;2022-10-22T01:35:41;11.87;;;6.87;;
11887;SDS011;6003;42.756;23.130;2022-10-22T01:38:11;7.30;;;5.73;;
11887;SDS011;6003;42.756;23.130;2022-10-22T01:40:42;10.03;;;6.83;;
11887;SDS011;6003;42.756;23.130;2022-10-22T01:43:10;9.97;;;6.53;;
11887;SDS011;6003;42.756;23.130;2022-10-22T01:45:39;9.17;;;6.40;;
11887;SDS011;6003;42.756;23.130;2022-10-22T01:48:15;9.87;;;6.80;;
11887;SDS011;6003;42.756;23.130;2022-10-22T01:50:58;10.83;;;7.13;;
11887;SDS011;6003;42.756;23.130;2022-10-22T01:53:39;9.40;;;6.33;;
11887;SDS011;6003;42.756;23.130;2022-10-22T01:56:21;9.73;;;6.47;;
11887;SDS011;6003;42.756;23.130;2022-10-22T01:59:03;10.90;;;6.30;;
11887;SDS011;6003;42.756;23.130;2022-10-22T02:01:38;8.73;;;5.77;;
11887;SDS011;6003;42.756;23.130;2022-10-22T02:04:14;10.50;;;7.07;;
11887;SDS011;6003;42.756;23.130;2022-10-22T02:06:45;6.87;;;5.43;;
11887;SDS011;6003;42.756;23.130;2022-10-22T02:09:14;9.37;;;6.80;;
11887;SDS011;6003;42.756;23.130;2022-10-22T02:11:45;9.47;;;6.30;;
11887;SDS011;6003;42.756;23.130;2022-10-22T02:14:14;7.73;;;5.50;;
11887;SDS011;6003;42.756;23.130;2022-10-22T02:16:45;11.57;;;6.57;;
11887;SDS011;6003;42.756;23.130;2022-10-22T02:19:16;9.87;;;6.33;;
11887;SDS011;6003;42.756;23.130;2022-10-22T02:21:49;10.30;;;5.50;;
11887;SDS011;6003;42.756;23.130;2022-10-22T02:24:17;10.20;;;6.67;;
11887;SDS011;6003;42.756;23.130;2022-10-22T02:26:46;9.73;;;6.57;;
11887;SDS011;6003;42.756;23.130;2022-10-22T02:32:35;7.83;;;5.57;;
11887;SDS011;6003;42.756;23.130;2022-10-22T02:35:07;13.57;;;6.77;;
11887;SDS011;6003;42.756;23.130;2022-10-22T02:37:37;9.23;;;6.13;;
11887;SDS011;6003;42.756;23.130;2022-10-22T02:40:05;10.60;;;6.60;;
11887;SDS011;6003;42.756;23.130;2022-10-22T02:42:33;8.33;;;6.00;;
11887;SDS011;6003;42.756;23.130;2022-10-22T02:45:01;10.43;;;7.13;;
11887;SDS011;6003;42.756;23.130;2022-10-22T02:47:28;11.03;;;6.90;;
11887;SDS011;6003;42.756;23.130;2022-10-22T02:49:57;8.80;;;6.30;;
11887;SDS011;6003;42.756;23.130;2022-10-22T02:52:24;9.27;;;6.00;;
11887;SDS011;6003;42.756;23.130;2022-10-22T02:54:51;9.20;;;6.57;;
11887;SDS011;6003;42.756;23.130;2022-10-22T02:57:18;12.77;;;6.70;;
11887;SDS011;6003;42.756;23.130;2022-10-22T02:59:45;9.77;;;6.27;;
11887;SDS011;6003;42.756;23.130;2022-10-22T03:02:12;9.63;;;6.27;;
11887;SDS011;6003;42.756;23.130;2022-10-22T03:04:39;9.00;;;6.30;;
11887;SDS011;6003;42.756;23.130;2022-10-22T03:07:07;8.80;;;5.90;;
11887;SDS011;6003;42.756;23.130;2022-10-22T03:09:34;10.27;;;6.37;;
11887;SDS011;6003;42.756;23.130;2022-10-22T03:12:01;13.83;;;6.37;;
11887;SDS011;6003;42.756;23.130;2022-10-22T03:14:28;8.20;;;5.80;;
11887;SDS011;6003;42.756;23.130;2022-10-22T03:16:55;11.20;;;6.43;;
11887;SDS011;6003;42.756;23.130;2022-10-22T03:19:22;9.90;;;6.67;;
11887;SDS011;6003;42.756;23.130;2022-10-22T03:21:50;12.33;;;7.30;;
11887;SDS011;6003;42.756;23.130;2022-10-22T03:24:23;10.60;;;6.77;;
11887;SDS011;6003;42.756;23.130;2022-10-22T03:26:53;8.77;;;6.70;;
11887;SDS011;6003;42.756;23.130;2022-10-22T03:29:20;14.13;;;6.97;;
11887;SDS011;6003;42.756;23.130;2022-10-22T03:31:49;8.00;;;5.93;;
11887;SDS011;6003;42.756;23.130;2022-10-22T03:34:16;10.33;;;6.93;;
11887;SDS011;6003;42.756;23.130;2022-10-22T03:36:43;10.47;;;6.10;;
11887;SDS011;6003;42.756;23.130;2022-10-22T03:39:10;7.97;;;5.77;;
11887;SDS011;6003;42.756;23.130;2022-10-22T03:41:41;10.50;;;6.37;;
11887;SDS011;6003;42.756;23.130;2022-10-22T03:44:08;9.93;;;6.47;;
11887;SDS011;6003;42.756;23.130;2022-10-22T03:46:36;9.30;;;6.90;;
11887;SDS011;6003;42.756;23.130;2022-10-22T03:49:03;14.20;;;7.97;;
11887;SDS011;6003;42.756;23.130;2022-10-22T03:51:30;18.70;;;7.60;;
11887;SDS011;6003;42.756;23.130;2022-10-22T03:53:57;12.23;;;7.80;;
11887;SDS011;6003;42.756;23.130;2022-10-22T03:56:24;14.23;;;7.70;;
11887;SDS011;6003;42.756;23.130;2022-10-22T03:58:54;9.90;;;6.83;;
11887;SDS011;6003;42.756;23.130;2022-10-22T04:01:21;10.47;;;7.23;;
11887;SDS011;6003;42.756;23.130;2022-10-22T04:03:49;12.00;;;7.27;;
11887;SDS011;6003;42.756;23.130;2022-10-22T04:06:16;10.13;;;7.20;;
11887;SDS011;6003;42.756;23.130;2022-10-22T04:08:43;10.07;;;7.13;;
11887;SDS011;6003;42.756;23.130;2022-10-22T04:11:11;9.87;;;6.80;;
11887;SDS011;6003;42.756;23.130;2022-10-22T04:13:39;12.23;;;6.60;;
11887;SDS011;6003;42.756;23.130;2022-10-22T04:16:09;11.77;;;7.37;;
11887;SDS011;6003;42.756;23.130;2022-10-22T04:18:37;11.73;;;7.53;;
11887;SDS011;6003;42.756;23.130;2022-10-22T04:21:06;12.37;;;6.87;;
11887;SDS011;6003;42.756;23.130;2022-10-22T04:23:34;10.30;;;6.47;;
11887;SDS011;6003;42.756;23.130;2022-10-22T04:26:02;10.67;;;7.10;;
11887;SDS011;6003;42.756;23.130;2022-10-22T04:28:31;11.57;;;7.53;;
11887;SDS011;6003;42.756;23.130;2022-10-22T04:30:59;10.47;;;7.57;;
11887;SDS011;6003;42.756;23.130;2022-10-22T04:33:27;12.83;;;7.93;;
11887;SDS011;6003;42.756;23.130;2022-10-22T04:35:54;13.07;;;7.60;;
11887;SDS011;6003;42.756;23.130;2022-10-22T04:38:21;14.53;;;8.23;;
11887;SDS011;6003;42.756;23.130;2022-10-22T04:40:48;11.17;;;7.13;;
11887;SDS011;6003;42.756;23.130;2022-10-22T04:43:15;11.60;;;7.40;;
11887;SDS011;6003;42.756;23.130;2022-10-22T04:45:41;12.10;;;8.07;;
11887;SDS011;6003;42.756;23.130;2022-10-22T04:48:09;15.40;;;7.87;;
11887;SDS011;6003;42.756;23.130;2022-10-22T04:50:37;10.67;;;6.93;;
11887;SDS011;6003;42.756;23.130;2022-10-22T04:53:04;11.47;;;7.57;;
11887;SDS011;6003;42.756;23.130;2022-10-22T04:55:30;9.63;;;6.53;;
11887;SDS011;6003;42.756;23.130;2022-10-22T04:57:57;9.53;;;6.83;;
11887;SDS011;6003;42.756;23.130;2022-10-22T05:00:26;11.80;;;7.53;;
11887;SDS011;6003;42.756;23.130;2022-10-22T05:02:53;9.23;;;6.37;;
11887;SDS011;6003;42.756;23.130;2022-10-22T05:05:20;12.37;;;7.53;;
11887;SDS011;6003;42.756;23.130;2022-10-22T05:07:48;10.63;;;8.07;;
11887;SDS011;6003;42.756;23.130;2022-10-22T05:10:25;10.07;;;7.00;;
11887;SDS011;6003;42.756;23.130;2022-10-22T05:12:53;11.33;;;7.33;;
11887;SDS011;6003;42.756;23.130;2022-10-22T05:15:20;11.53;;;7.07;;
11887;SDS011;6003;42.756;23.130;2022-10-22T05:17:47;11.83;;;6.93;;
11887;SDS011;6003;42.756;23.130;2022-10-22T05:20:13;9.97;;;6.60;;
11887;SDS011;6003;42.756;23.130;2022-10-22T05:22:41;9.40;;;6.60;;
11887;SDS011;6003;42.756;23.130;2022-10-22T05:25:09;9.97;;;6.63;;
11887;SDS011;6003;42.756;23.130;2022-10-22T05:27:37;10.50;;;7.17;;
11887;SDS011;6003;42.756;23.130;2022-10-22T05:30:04;7.30;;;6.27;;
11887;SDS011;6003;42.756;23.130;2022-10-22T05:32:33;12.17;;;6.67;;
11887;SDS011;6003;42.756;23.130;2022-10-22T05:35:00;9.43;;;6.57;;
11887;SDS011;6003;42.756;23.130;2022-10-22T05:37:29;11.23;;;6.47;;
11887;SDS011;6003;42.756;23.130;2022-10-22T05:39:56;10.43;;;6.70;;
11887;SDS011;6003;42.756;23.130;2022-10-22T05:42:25;12.07;;;7.50;;
11887;SDS011;6003;42.756;23.130;2022-10-22T05:44:56;10.43;;;6.77;;
11887;SDS011;6003;42.756;23.130;2022-10-22T05:47:23;11.33;;;6.57;;
11887;SDS011;6003;42.756;23.130;2022-10-22T05:49:50;10.30;;;7.40;;
11887;SDS011;6003;42.756;23.130;2022-10-22T05:52:17;14.87;;;7.87;;
11887;SDS011;6003;42.756;23.130;2022-10-22T05:54:44;10.13;;;6.90;;
11887;SDS011;6003;42.756;23.130;2022-10-22T05:57:11;19.70;;;9.10;;
11887;SDS011;6003;42.756;23.130;2022-10-22T05:59:39;14.23;;;9.17;;
11887;SDS011;6003;42.756;23.130;2022-10-22T06:02:07;22.73;;;10.67;;
11887;SDS011;6003;42.756;23.130;2022-10-22T06:04:34;16.57;;;10.50;;
11887;SDS011;6003;42.756;23.130;2022-10-22T06:07:01;15.67;;;8.33;;
11887;SDS011;6003;42.756;23.130;2022-10-22T06:09:29;13.60;;;8.43;;
11887;SDS011;6003;42.756;23.130;2022-10-22T06:11:58;15.50;;;9.03;;
11887;SDS011;6003;42.756;23.130;2022-10-22T06:14:25;14.43;;;8.43;;
11887;SDS011;6003;42.756;23.130;2022-10-22T06:16:54;15.20;;;8.97;;
11887;SDS011;6003;42.756;23.130;2022-10-22T06:22:46;14.53;;;8.43;;
11887;SDS011;6003;42.756;23.130;2022-10-22T06:25:13;14.17;;;8.37;;
11887;SDS011;6003;42.756;23.130;2022-10-22T06:27:40;13.10;;;9.07;;
11887;SDS011;6003;42.756;23.130;2022-10-22T06:30:08;15.33;;;9.03;;
11887;SDS011;6003;42.756;23.130;2022-10-22T06:32:37;13.93;;;8.93;;
11887;SDS011;6003;42.756;23.130;2022-10-22T06:35:05;16.53;;;9.47;;
11887;SDS011;6003;42.756;23.130;2022-10-22T06:37:33;15.00;;;9.50;;
11887;SDS011;6003;42.756;23.130;2022-10-22T06:40:00;14.50;;;9.33;;
11887;SDS011;6003;42.756;23.130;2022-10-22T06:42:27;13.30;;;9.00;;
11887;SDS011;6003;42.756;23.130;2022-10-22T06:44:54;14.97;;;8.37;;
11887;SDS011;6003;42.756;23.130;2022-10-22T06:47:21;17.07;;;9.77;;
11887;SDS011;6003;42.756;23.130;2022-10-22T06:49:49;12.87;;;8.80;;
11887;SDS011;6003;42.756;23.130;2022-10-22T06:52:16;13.17;;;10.07;;
11887;SDS011;6003;42.756;23.130;2022-10-22T06:54:43;16.97;;;9.63;;
11887;SDS011;6003;42.756;23.130;2022-10-22T06:57:11;17.23;;;10.50;;
11887;SDS011;6003;42.756;23.130;2022-10-22T06:59:38;19.93;;;11.40;;
11887;SDS011;6003;42.756;23.130;2022-10-22T07:02:05;17.60;;;11.60;;
11887;SDS011;6003;42.756;23.130;2022-10-22T07:04:32;19.17;;;11.67;;
11887;SDS011;6003;42.756;23.130;2022-10-22T07:07:00;18.53;;;11.50;;
11887;SDS011;6003;42.756;23.130;2022-10-22T07:09:27;16.17;;;10.50;;
11887;SDS011;6003;42.756;23.130;2022-10-22T07:11:54;18.17;;;11.20;;
11887;SDS011;6003;42.756;23.130;2022-10-22T07:14:21;19.73;;;12.67;;
11887;SDS011;6003;42.756;23.130;2022-10-22T07:16:48;22.53;;;12.40;;
11887;SDS011;6003;42.756;23.130;2022-10-22T07:19:15;20.20;;;11.73;;
11887;SDS011;6003;42.756;23.130;2022-10-22T07:21:42;19.03;;;12.57;;
11887;SDS011;6003;42.756;23.130;2022-10-22T07:24:11;18.77;;;11.63;;
11887;SDS011;6003;42.756;23.130;2022-10-22T07:26:38;16.00;;;10.10;;
11887;SDS011;6003;42.756;23.130;2022-10-22T07:29:05;16.43;;;9.33;;
11887;SDS011;6003;42.756;23.130;2022-10-22T07:31:33;15.37;;;10.73;;
11887;SDS011;6003;42.756;23.130;2022-10-22T07:34:01;17.83;;;8.50;;
11887;SDS011;6003;42.756;23.130;2022-10-22T07:36:27;16.30;;;9.30;;
11887;SDS011;6003;42.756;23.130;2022-10-22T07:38:55;13.20;;;8.63;;
11887;SDS011;6003;42.756;23.130;2022-10-22T07:41:25;15.73;;;8.63;;
11887;SDS011;6003;42.756;23.130;2022-10-22T07:43:52;15.43;;;8.30;;
11887;SDS011;6003;42.756;23.130;2022-10-22T07:46:19;10.33;;;7.50;;
11887;SDS011;6003;42.756;23.130;2022-10-22T07:48:46;12.73;;;8.27;;
11887;SDS011;6003;42.756;23.130;2022-10-22T07:51:13;11.67;;;7.97;;
11887;SDS011;6003;42.756;23.130;2022-10-22T07:53:40;15.43;;;8.67;;
11887;SDS011;6003;42.756;23.130;2022-10-22T07:56:08;13.97;;;9.17;;
11887;SDS011;6003;42.756;23.130;2022-10-22T07:58:36;11.73;;;8.27;;
11887;SDS011;6003;42.756;23.130;2022-10-22T08:01:03;11.53;;;8.20;;
11887;SDS011;6003;42.756;23.130;2022-10-22T08:03:31;12.33;;;8.37;;
11887;SDS011;6003;42.756;23.130;2022-10-22T08:05:58;14.87;;;8.10;;
11887;SDS011;6003;42.756;23.130;2022-10-22T08:08:26;11.53;;;7.93;;
11887;SDS011;6003;42.756;23.130;2022-10-22T08:10:54;10.60;;;7.47;;
11887;SDS011;6003;42.756;23.130;2022-10-22T08:13:24;12.97;;;7.83;;
11887;SDS011;6003;42.756;23.130;2022-10-22T08:15:53;9.40;;;7.57;;
11887;SDS011;6003;42.756;23.130;2022-10-22T08:18:24;10.07;;;7.80;;
11887;SDS011;6003;42.756;23.130;2022-10-22T08:20:52;11.07;;;7.23;;
11887;SDS011;6003;42.756;23.130;2022-10-22T08:23:19;12.13;;;7.50;;
11887;SDS011;6003;42.756;23.130;2022-10-22T08:25:46;10.03;;;7.27;;
11887;SDS011;6003;42.756;23.130;2022-10-22T08:28:13;11.30;;;7.97;;
11887;SDS011;6003;42.756;23.130;2022-10-22T08:30:40;9.43;;;7.23;;
11887;SDS011;6003;42.756;23.130;2022-10-22T08:33:10;9.50;;;7.30;;
11887;SDS011;6003;42.756;23.130;2022-10-22T08:35:37;9.60;;;7.50;;
11887;SDS011;6003;42.756;23.130;2022-10-22T08:38:04;12.73;;;7.53;;
11887;SDS011;6003;42.756;23.130;2022-10-22T08:40:31;11.93;;;7.80;;
11887;SDS011;6003;42.756;23.130;2022-10-22T08:43:12;12.97;;;8.10;;
11887;SDS011;6003;42.756;23.130;2022-10-22T08:45:53;10.33;;;7.27;;
11887;SDS011;6003;42.756;23.130;2022-10-22T08:48:34;8.67;;;6.47;;
11887;SDS011;6003;42.756;23.130;2022-10-22T08:51:10;10.90;;;7.27;;
11887;SDS011;6003;42.756;23.130;2022-10-22T08:53:41;12.87;;;7.20;;
11887;SDS011;6003;42.756;23.130;2022-10-22T08:56:16;11.80;;;7.47;;
11887;SDS011;6003;42.756;23.130;2022-10-22T08:58:45;9.23;;;6.67;;
11887;SDS011;6003;42.756;23.130;2022-10-22T09:01:18;8.63;;;7.17;;
11887;SDS011;6003;42.756;23.130;2022-10-22T09:03:49;10.23;;;7.17;;
11887;SDS011;6003;42.756;23.130;2022-10-22T09:06:21;10.33;;;6.70;;
11887;SDS011;6003;42.756;23.130;2022-10-22T09:08:50;9.00;;;6.97;;
11887;SDS011;6003;42.756;23.130;2022-10-22T09:11:23;8.43;;;6.77;;
11887;SDS011;6003;42.756;23.130;2022-10-22T09:13:53;8.83;;;6.20;;
11887;SDS011;6003;42.756;23.130;2022-10-22T09:16:24;8.63;;;6.80;;
11887;SDS011;6003;42.756;23.130;2022-10-22T09:19:02;9.53;;;7.10;;
11887;SDS011;6003;42.756;23.130;2022-10-22T09:21:37;15.97;;;7.50;;
11887;SDS011;6003;42.756;23.130;2022-10-22T09:24:26;14.13;;;6.97;;
11887;SDS011;6003;42.756;23.130;2022-10-22T09:26:56;8.87;;;6.43;;
11887;SDS011;6003;42.756;23.130;2022-10-22T09:29:27;10.10;;;7.20;;
11887;SDS011;6003;42.756;23.130;2022-10-22T09:31:58;7.43;;;6.57;;
11887;SDS011;6003;42.756;23.130;2022-10-22T09:34:27;11.40;;;6.57;;
11887;SDS011;6003;42.756;23.130;2022-10-22T09:36:57;8.57;;;6.80;;
11887;SDS011;6003;42.756;23.130;2022-10-22T09:39:26;9.00;;;6.60;;
11887;SDS011;6003;42.756;23.130;2022-10-22T09:41:57;9.47;;;7.17;;
11887;SDS011;6003;42.756;23.130;2022-10-22T09:44:24;11.50;;;7.03;;
11887;SDS011;6003;42.756;23.130;2022-10-22T09:46:51;10.93;;;6.97;;
11887;SDS011;6003;42.756;23.130;2022-10-22T09:49:19;11.03;;;6.30;;
11887;SDS011;6003;42.756;23.130;2022-10-22T09:51:51;12.07;;;7.20;;
11887;SDS011;6003;42.756;23.130;2022-10-22T09:54:20;8.50;;;6.60;;
11887;SDS011;6003;42.756;23.130;2022-10-22T09:56:50;9.27;;;6.10;;
11887;SDS011;6003;42.756;23.130;2022-10-22T09:59:23;7.50;;;6.13;;
11887;SDS011;6003;42.756;23.130;2022-10-22T10:01:58;7.07;;;6.30;;
11887;SDS011;6003;42.756;23.130;2022-10-22T10:04:26;7.20;;;5.73;;
11887;SDS011;6003;42.756;23.130;2022-10-22T10:06:55;11.03;;;6.63;;
11887;SDS011;6003;42.756;23.130;2022-10-22T10:09:36;9.17;;;6.07;;
11887;SDS011;6003;42.756;23.130;2022-10-22T10:12:05;8.27;;;5.90;;
11887;SDS011;6003;42.756;23.130;2022-10-22T10:14:39;9.13;;;6.87;;
11887;SDS011;6003;42.756;23.130;2022-10-22T10:17:14;7.90;;;6.23;;
11887;SDS011;6003;42.756;23.130;2022-10-22T10:19:54;7.97;;;6.37;;
11887;SDS011;6003;42.756;23.130;2022-10-22T10:22:39;7.20;;;6.50;;
11887;SDS011;6003;42.756;23.130;2022-10-22T10:28:21;6.13;;;5.47;;
11887;SDS011;6003;42.756;23.130;2022-10-22T10:30:59;8.33;;;6.27;;
11887;SDS011;6003;42.756;23.130;2022-10-22T10:33:40;7.03;;;6.23;;
11887;SDS011;6003;42.756;23.130;2022-10-22T10:36:18;8.93;;;6.07;;
11887;SDS011;6003;42.756;23.130;2022-10-22T10:38:56;7.63;;;6.20;;
11887;SDS011;6003;42.756;23.130;2022-10-22T10:41:32;9.53;;;6.23;;
11887;SDS011;6003;42.756;23.130;2022-10-22T10:44:15;7.47;;;6.17;;
11887;SDS011;6003;42.756;23.130;2022-10-22T10:47:06;6.80;;;5.43;;
11887;SDS011;6003;42.756;23.130;2022-10-22T10:49:44;8.50;;;6.07;;
11887;SDS011;6003;42.756;23.130;2022-10-22T10:52:13;7.40;;;6.70;;
11887;SDS011;6003;42.756;23.130;2022-10-22T10:54:51;7.03;;;5.20;;
11887;SDS011;6003;42.756;23.130;2022-10-22T10:57:29;8.50;;;5.37;;
11887;SDS011;6003;42.756;23.130;2022-10-22T11:00:06;7.80;;;6.27;;
11887;SDS011;6003;42.756;23.130;2022-10-22T11:05:38;13.53;;;6.43;;
11887;SDS011;6003;42.756;23.130;2022-10-22T11:08:10;7.37;;;5.80;;
11887;SDS011;6003;42.756;23.130;2022-10-22T11:10:44;6.53;;;5.57;;
11887;SDS011;6003;42.756;23.130;2022-10-22T11:13:16;9.00;;;6.03;;
11887;SDS011;6003;42.756;23.130;2022-10-22T11:15:50;6.10;;;5.43;;
11887;SDS011;6003;42.756;23.130;2022-10-22T11:18:38;8.10;;;5.60;;
11887;SDS011;6003;42.756;23.130;2022-10-22T11:21:13;7.03;;;5.87;;
11887;SDS011;6003;42.756;23.130;2022-10-22T11:23:45;10.87;;;6.17;;
11887;SDS011;6003;42.756;23.130;2022-10-22T11:26:18;6.40;;;5.80;;
11887;SDS011;6003;42.756;23.130;2022-10-22T11:28:55;7.27;;;6.17;;
11887;SDS011;6003;42.756;23.130;2022-10-22T11:31:25;9.37;;;5.90;;
11887;SDS011;6003;42.756;23.130;2022-10-22T11:33:56;7.53;;;5.70;;
11887;SDS011;6003;42.756;23.130;2022-10-22T11:36:30;7.13;;;5.80;;
11887;SDS011;6003;42.756;23.130;2022-10-22T11:38:58;6.67;;;5.77;;
11887;SDS011;6003;42.756;23.130;2022-10-22T11:41:30;7.77;;;6.03;;
11887;SDS011;6003;42.756;23.130;2022-10-22T11:44:09;7.53;;;6.07;;
11887;SDS011;6003;42.756;23.130;2022-10-22T11:46:53;7.10;;;6.03;;
11887;SDS011;6003;42.756;23.130;2022-10-22T11:49:22;10.33;;;7.03;;
11887;SDS011;6003;42.756;23.130;2022-10-22T11:51:51;9.07;;;6.17;;
11887;SDS011;6003;42.756;23.130;2022-10-22T11:54:48;12.10;;;6.60;;
11887;SDS011;6003;42.756;23.130;2022-10-22T11:57:24;11.03;;;6.27;;
11887;SDS011;6003;42.756;23.130;2022-10-22T11:59:56;6.73;;;6.07;;
11887;SDS011;6003;42.756;23.130;2022-10-22T12:08:02;8.47;;;5.53;;
11887;SDS011;6003;42.756;23.130;2022-10-22T12:10:48;8.37;;;5.90;;
11887;SDS011;6003;42.756;23.130;2022-10-22T12:13:33;15.60;;;6.67;;
11887;SDS011;6003;42.756;23.130;2022-10-22T12:16:28;9.33;;;6.63;;
11887;SDS011;6003;42.756;23.130;2022-10-22T12:19:03;8.97;;;6.83;;
11887;SDS011;6003;42.756;23.130;2022-10-22T12:21:38;9.93;;;6.70;;
11887;SDS011;6003;42.756;23.130;2022-10-22T12:24:08;7.00;;;5.93;;
11887;SDS011;6003;42.756;23.130;2022-10-22T12:26:40;10.43;;;6.60;;
11887;SDS011;6003;42.756;23.130;2022-10-22T12:29:11;7.87;;;6.37;;
11887;SDS011;6003;42.756;23.130;2022-10-22T12:31:40;8.47;;;6.90;;
11887;SDS011;6003;42.756;23.130;2022-10-22T12:34:12;9.83;;;6.83;;
11887;SDS011;6003;42.756;23.130;2022-10-22T12:36:40;9.53;;;6.93;;
11887;SDS011;6003;42.756;23.130;2022-10-22T12:39:11;7.13;;;6.43;;
11887;SDS011;6003;42.756;23.130;2022-10-22T12:41:40;10.00;;;6.57;;
11887;SDS011;6003;42.756;23.130;2022-10-22T12:44:10;10.40;;;6.57;;
11887;SDS011;6003;42.756;23.130;2022-10-22T12:46:39;8.37;;;6.53;;
11887;SDS011;6003;42.756;23.130;2022-10-22T12:49:12;10.03;;;7.50;;
11887;SDS011;6003;42.756;23.130;2022-10-22T12:51:42;8.63;;;6.37;;
11887;SDS011;6003;42.756;23.130;2022-10-22T12:54:17;9.37;;;6.20;;
11887;SDS011;6003;42.756;23.130;2022-10-22T12:56:50;6.83;;;6.13;;
11887;SDS011;6003;42.756;23.130;2022-10-22T12:59:21;11.47;;;7.30;;
11887;SDS011;6003;42.756;23.130;2022-10-22T13:01:50;9.27;;;7.03;;
11887;SDS011;6003;42.756;23.130;2022-10-22T13:04:20;9.23;;;7.30;;
11887;SDS011;6003;42.756;23.130;2022-10-22T13:07:03;9.10;;;7.50;;
11887;SDS011;6003;42.756;23.130;2022-10-22T13:09:39;9.33;;;7.27;;
11887;SDS011;6003;42.756;23.130;2022-10-22T13:12:08;9.03;;;6.63;;
11887;SDS011;6003;42.756;23.130;2022-10-22T13:14:42;9.00;;;7.03;;
11887;SDS011;6003;42.756;23.130;2022-10-22T13:17:11;9.37;;;7.10;;
11887;SDS011;6003;42.756;23.130;2022-10-22T13:19:42;9.17;;;6.50;;
11887;SDS011;6003;42.756;23.130;2022-10-22T13:25:17;7.00;;;6.27;;
11887;SDS011;6003;42.756;23.130;2022-10-22T13:27:48;10.57;;;7.47;;
11887;SDS011;6003;42.756;23.130;2022-10-22T13:30:19;9.03;;;7.00;;
11887;SDS011;6003;42.756;23.130;2022-10-22T13:32:48;10.20;;;7.00;;
11887;SDS011;6003;42.756;23.130;2022-10-22T13:35:17;10.40;;;7.20;;
11887;SDS011;6003;42.756;23.130;2022-10-22T13:37:47;8.73;;;6.50;;
11887;SDS011;6003;42.756;23.130;2022-10-22T13:40:14;10.23;;;6.87;;
11887;SDS011;6003;42.756;23.130;2022-10-22T13:42:41;11.03;;;7.03;;
11887;SDS011;6003;42.756;23.130;2022-10-22T13:45:08;10.63;;;7.47;;
11887;SDS011;6003;42.756;23.130;2022-10-22T13:47:37;7.13;;;6.47;;
11887;SDS011;6003;42.756;23.130;2022-10-22T13:50:06;9.73;;;6.93;;
11887;SDS011;6003;42.756;23.130;2022-10-22T13:52:39;8.70;;;6.80;;
11887;SDS011;6003;42.756;23.130;2022-10-22T13:55:13;10.87;;;7.10;;
11887;SDS011;6003;42.756;23.130;2022-10-22T13:57:42;8.30;;;7.00;;
11887;SDS011;6003;42.756;23.130;2022-10-22T14:00:11;8.33;;;6.87;;
11887;SDS011;6003;42.756;23.130;2022-10-22T14:02:41;10.67;;;7.33;;
11887;SDS011;6003;42.756;23.130;2022-10-22T14:05:08;11.47;;;7.40;;
11887;SDS011;6003;42.756;23.130;2022-10-22T14:07:36;9.83;;;6.50;;
11887;SDS011;6003;42.756;23.130;2022-10-22T14:10:14;10.97;;;7.23;;
11887;SDS011;6003;42.756;23.130;2022-10-22T14:12:42;14.40;;;7.50;;
11887;SDS011;6003;42.756;23.130;2022-10-22T14:15:10;8.13;;;7.33;;
11887;SDS011;6003;42.756;23.130;2022-10-22T14:17:39;10.27;;;7.50;;
11887;SDS011;6003;42.756;23.130;2022-10-22T14:20:12;9.63;;;6.67;;
11887;SDS011;6003;42.756;23.130;2022-10-22T14:22:43;8.90;;;6.80;;
11887;SDS011;6003;42.756;23.130;2022-10-22T14:25:12;10.90;;;7.03;;
11887;SDS011;6003;42.756;23.130;2022-10-22T14:27:41;13.77;;;7.70;;
11887;SDS011;6003;42.756;23.130;2022-10-22T14:30:08;8.87;;;6.53;;
11887;SDS011;6003;42.756;23.130;2022-10-22T14:32:41;11.23;;;6.90;;
11887;SDS011;6003;42.756;23.130;2022-10-22T14:35:09;10.67;;;7.80;;
11887;SDS011;6003;42.756;23.130;2022-10-22T14:37:39;9.73;;;6.87;;
11887;SDS011;6003;42.756;23.130;2022-10-22T14:40:06;9.97;;;7.10;;
11887;SDS011;6003;42.756;23.130;2022-10-22T14:42:36;7.53;;;6.47;;
11887;SDS011;6003;42.756;23.130;2022-10-22T14:45:06;8.67;;;6.67;;
11887;SDS011;6003;42.756;23.130;2022-10-22T14:47:40;12.07;;;6.77;;
11887;SDS011;6003;42.756;23.130;2022-10-22T14:50:07;10.40;;;7.47;;
11887;SDS011;6003;42.756;23.130;2022-10-22T14:52:35;10.37;;;7.20;;
11887;SDS011;6003;42.756;23.130;2022-10-22T14:55:03;8.30;;;6.90;;
11887;SDS011;6003;42.756;23.130;2022-10-22T14:57:30;8.60;;;6.60;;
11887;SDS011;6003;42.756;23.130;2022-10-22T14:59:57;7.73;;;6.73;;
11887;SDS011;6003;42.756;23.130;2022-10-22T15:02:24;9.90;;;6.53;;
11887;SDS011;6003;42.756;23.130;2022-10-22T15:04:53;8.57;;;7.33;;
11887;SDS011;6003;42.756;23.130;2022-10-22T15:07:20;13.07;;;8.33;;
11887;SDS011;6003;42.756;23.130;2022-10-22T15:09:48;10.40;;;7.77;;
11887;SDS011;6003;42.756;23.130;2022-10-22T15:12:15;12.47;;;7.50;;
11887;SDS011;6003;42.756;23.130;2022-10-22T15:14:44;16.37;;;9.07;;
11887;SDS011;6003;42.756;23.130;2022-10-22T15:17:11;20.43;;;10.33;;
11887;SDS011;6003;42.756;23.130;2022-10-22T15:19:38;19.20;;;10.87;;
11887;SDS011;6003;42.756;23.130;2022-10-22T15:22:07;18.57;;;10.10;;
11887;SDS011;6003;42.756;23.130;2022-10-22T15:24:34;15.37;;;9.70;;